Time;durP1;ratioP1;P1;durP2;ratioP2;P2;SDS_P1;SDS_P2;PMS_P1;PMS_P2;Temp;Humidity;BMP_temperature;BMP_pressure;BME280_temperature;BME280_humidity;BME280_pressure;Samples;Min_cycle;Max_cycle;Signal;HPM_P1;HPM_P2
2022/06/02 00:01:27;;;;;;;4.53;2.55;;;;;;;11.72;69.62;102113.75;5033514;28;101530;-34
2022/06/02 00:04:11;;;;;;;4.88;2.55;;;;;;;11.69;69.94;102101.19;5034897;28;96769;-34
2022/06/02 00:06:58;;;;;;;4.90;2.67;;;;;;;11.66;70.53;102111.34;5035095;28;96591;-34
2022/06/02 00:09:29;;;;;;;3.75;2.38;;;;;;;11.62;69.76;102113.28;5034983;28;97981;-34
2022/06/02 00:12:05;;;;;;;4.03;2.50;;;;;;;11.53;69.91;102096.56;5034932;28;97331;-34
2022/06/02 00:14:39;;;;;;;5.90;3.03;;;;;;;11.56;70.58;102109.97;5016763;28;96775;-35
2022/06/02 00:17:41;;;;;;;5.63;2.80;;;;;;;11.54;70.59;102104.63;5034804;28;96882;-34
2022/06/02 00:20:15;;;;;;;5.32;2.15;;;;;;;11.51;70.31;102110.19;5034204;28;99569;-34
2022/06/02 00:23:02;;;;;;;5.63;3.03;;;;;;;11.48;70.61;102104.91;5034452;28;99589;-34
2022/06/02 00:25:50;;;;;;;4.35;2.67;;;;;;;11.43;71.06;102110.53;5034855;28;96725;-34
2022/06/02 00:28:44;;;;;;;4.75;2.53;;;;;;;11.39;71.05;102111.63;5033074;28;96833;-34
2022/06/02 00:31:38;;;;;;;4.97;2.55;;;;;;;11.37;71.40;102115.34;5032513;28;100809;-34
2022/06/02 00:34:29;;;;;;;9.60;2.88;;;;;;;11.30;70.77;102114.75;5007239;28;97963;-34
2022/06/02 00:37:33;;;;;;;4.32;2.40;;;;;;;11.29;70.63;102117.53;5033090;28;96896;-34
2022/06/02 00:40:00;;;;;;;5.05;2.70;;;;;;;11.19;70.60;102112.50;4972485;28;96974;-34
2022/06/02 00:42:25;;;;;;;9.07;3.05;;;;;;;11.22;70.63;102122.34;5020424;28;99168;-34
2022/06/02 00:44:59;;;;;;;4.78;2.53;;;;;;;11.18;71.11;102113.47;5033134;28;97819;-34
2022/06/02 00:47:42;;;;;;;7.35;3.30;;;;;;;11.19;70.72;102123.34;5034018;28;96497;-34
2022/06/02 00:50:12;;;;;;;6.80;2.97;;;;;;;11.17;71.08;102124.38;5034089;28;96804;-34
2022/06/02 00:53:08;;;;;;;6.50;2.50;;;;;;;11.12;71.25;102121.84;5032403;28;100649;-34
2022/06/02 00:58:45;;;;;;;4.43;2.70;;;;;;;11.06;70.83;102130.28;5031568;28;96528;-34
2022/06/02 01:01:18;;;;;;;5.15;2.85;;;;;;;10.98;72.00;102122.44;5016108;28;97279;-34
2022/06/02 01:03:47;;;;;;;6.88;3.63;;;;;;;11.00;71.55;102125.09;5033860;28;99359;-34
2022/06/02 01:06:31;;;;;;;6.38;2.80;;;;;;;10.98;72.03;102127.88;5034236;28;97841;-34
2022/06/02 01:09:06;;;;;;;6.28;2.80;;;;;;;10.97;71.97;102130.66;5033917;28;96630;-34
2022/06/02 01:11:52;;;;;;;4.93;2.92;;;;;;;10.95;72.08;102135.25;5033972;28;96556;-34
2022/06/02 01:14:51;;;;;;;5.18;2.85;;;;;;;10.90;71.92;102140.00;5033428;28;98050;-34
2022/06/02 01:17:33;;;;;;;7.22;2.95;;;;;;;10.89;71.80;102128.25;5032177;28;101396;-34
2022/06/02 01:20:02;;;;;;;5.85;3.03;;;;;;;10.89;71.58;102128.25;5032566;28;96833;-34
2022/06/02 01:23:12;;;;;;;3.63;2.20;;;;;;;10.84;71.86;102124.84;5033818;28;96737;-34
2022/06/02 01:25:43;;;;;;;6.15;2.80;;;;;;;10.84;71.67;102135.69;5033727;28;97993;-34
2022/06/02 01:28:29;;;;;;;6.33;3.17;;;;;;;10.81;72.26;102139.44;5033793;28;97441;-34
2022/06/02 01:31:06;;;;;;;6.35;3.10;;;;;;;10.74;71.84;102131.63;5031940;28;96876;-34
2022/06/02 01:33:41;;;;;;;6.72;3.47;;;;;;;10.79;72.19;102137.72;5034144;28;96547;-34
2022/06/02 01:36:06;;;;;;;7.03;3.08;;;;;;;10.76;71.87;102141.44;5033599;28;97495;-34
2022/06/02 01:38:39;;;;;;;9.05;3.40;;;;;;;10.67;70.92;102124.69;5033660;28;97746;-34
2022/06/02 01:41:16;;;;;;;5.85;2.63;;;;;;;10.68;71.69;102137.28;5031692;28;97680;-34
2022/06/02 01:43:54;;;;;;;7.28;2.90;;;;;;;10.66;71.71;102141.91;5031993;28;96787;-34
2022/06/02 01:46:31;;;;;;;5.18;2.88;;;;;;;10.63;71.51;102146.50;5030989;28;100792;-34
2022/06/02 01:49:05;;;;;;;9.13;2.55;;;;;;;10.63;72.32;102145.63;5031633;28;100902;-34
2022/06/02 01:51:55;;;;;;;8.90;3.78;;;;;;;10.61;72.64;102136.69;5033303;28;96641;-34
2022/06/02 01:54:32;;;;;;;6.85;3.50;;;;;;;10.59;72.13;102141.28;5033560;28;97255;-34
2022/06/02 01:57:42;;;;;;;5.68;3.05;;;;;;;10.58;72.09;102142.19;5032285;27;98039;-34
2022/06/02 02:00:12;;;;;;;5.28;2.58;;;;;;;10.53;71.95;102133.38;5030142;28;97319;-34
2022/06/02 02:02:40;;;;;;;5.75;3.25;;;;;;;10.57;72.47;102145.88;5033096;28;96760;-34
2022/06/02 02:05:21;;;;;;;4.93;3.33;;;;;;;10.55;73.03;102137.78;5031474;28;97097;-34
2022/06/02 02:08:05;;;;;;;8.80;2.97;;;;;;;10.55;72.81;102137.78;5032741;28;97315;-34
2022/06/02 02:11:11;;;;;;;6.88;3.20;;;;;;;10.56;73.79;102138.69;5033025;28;97382;-34
2022/06/02 02:13:58;;;;;;;5.78;3.13;;;;;;;10.60;73.07;102143.91;5032849;28;96492;-34
2022/06/02 02:16:33;;;;;;;11.77;3.38;;;;;;;10.55;72.76;102124.25;5033002;28;96928;-34
2022/06/02 02:19:16;;;;;;;5.30;2.90;;;;;;;10.60;72.92;102143.03;5032841;28;98917;-34
2022/06/02 02:22:00;;;;;;;7.57;3.70;;;;;;;10.56;72.44;102136.00;5032720;28;97360;-34
2022/06/02 02:24:53;;;;;;;4.60;2.83;;;;;;;10.50;73.42;102136.22;5032632;28;96548;-34
2022/06/02 02:27:26;;;;;;;7.07;3.25;;;;;;;10.56;72.92;102139.56;5033468;28;96493;-34
2022/06/02 02:30:08;;;;;;;7.07;3.85;;;;;;;10.54;72.21;102140.59;5031086;28;101062;-34
2022/06/02 02:33:01;;;;;;;7.85;3.63;;;;;;;10.58;72.37;102153.03;5014289;28;102028;-34
2022/06/02 02:36:03;;;;;;;8.25;3.90;;;;;;;10.59;73.45;102150.28;5032676;28;96564;-34
2022/06/02 02:38:40;;;;;;;4.82;2.70;;;;;;;10.57;72.74;102140.44;5032422;28;96800;-34
2022/06/02 02:41:29;;;;;;;9.40;4.55;;;;;;;10.60;72.60;102143.91;5030989;28;100927;-34
2022/06/02 02:44:03;;;;;;;5.97;3.05;;;;;;;10.55;72.48;102150.47;5000267;28;97325;-34
2022/06/02 02:46:48;;;;;;;5.57;3.42;;;;;;;10.58;72.89;102153.94;5013749;28;96653;-34
2022/06/02 02:49:29;;;;;;;5.78;3.13;;;;;;;10.57;73.28;102151.28;5031133;28;96863;-34
2022/06/02 02:52:04;;;;;;;9.20;3.63;;;;;;;10.53;73.48;102144.22;5030887;28;100703;-34
2022/06/02 02:54:39;;;;;;;6.88;3.55;;;;;;;10.56;72.83;102147.69;5031198;28;100800;-34
2022/06/02 02:57:07;;;;;;;13.27;4.13;;;;;;;10.54;73.35;102155.00;5032335;28;96763;-34
2022/06/02 02:59:39;;;;;;;8.60;3.75;;;;;;;10.52;73.24;102148.75;5032392;28;96816;-34
2022/06/02 03:02:35;;;;;;;8.05;4.03;;;;;;;10.49;73.43;102151.59;5031909;28;97450;-34
2022/06/02 03:05:16;;;;;;;7.72;3.53;;;;;;;10.45;74.00;102155.38;5030736;28;101563;-34
2022/06/02 03:07:41;;;;;;;9.85;3.38;;;;;;;10.35;73.36;102138.59;5031750;28;96671;-34
2022/06/02 03:10:15;;;;;;;9.13;3.50;;;;;;;10.35;73.04;102140.44;5032310;28;96822;-34
2022/06/02 03:13:12;;;;;;;9.77;3.25;;;;;;;10.31;73.72;102145.06;5031931;28;98122;-34
2022/06/02 03:15:50;;;;;;;6.35;3.15;;;;;;;10.35;73.15;102159.41;5013831;28;100896;-34
2022/06/02 03:18:36;;;;;;;6.93;3.40;;;;;;;10.34;73.60;102154.91;5030601;28;96712;-34
2022/06/02 03:21:33;;;;;;;5.38;2.88;;;;;;;10.30;73.87;102162.28;5006278;28;96848;-34
2022/06/02 03:24:10;;;;;;;4.25;2.70;;;;;;;10.26;73.93;102148.88;5031747;28;97992;-34
2022/06/02 03:26:53;;;;;;;7.25;3.80;;;;;;;10.25;73.73;102155.22;5030370;28;101689;-34
2022/06/02 03:29:51;;;;;;;6.78;3.40;;;;;;;10.20;73.42;102153.59;5031292;28;96548;-34
2022/06/02 03:32:41;;;;;;;5.43;2.92;;;;;;;10.23;73.75;102157.16;5030211;28;96833;-34
2022/06/02 03:35:19;;;;;;;5.88;3.25;;;;;;;10.19;73.98;102157.25;5031845;28;98179;-34
2022/06/02 03:37:53;;;;;;;7.18;2.92;;;;;;;10.19;73.95;102159.06;5030220;28;101332;-34
2022/06/02 03:41:00;;;;;;;7.68;3.17;;;;;;;10.18;73.47;102160.91;5031642;28;96425;-34
2022/06/02 03:43:40;;;;;;;6.93;3.28;;;;;;;10.16;73.48;102153.78;5032015;28;96578;-34
2022/06/02 03:46:17;;;;;;;4.65;2.53;;;;;;;10.14;73.26;102167.38;5031197;28;98453;-34
2022/06/02 03:48:52;;;;;;;7.93;3.22;;;;;;;10.13;73.33;102168.31;5032026;28;97789;-34
2022/06/02 03:51:26;;;;;;;5.10;3.13;;;;;;;10.11;73.50;102167.50;5031913;28;96736;-34
2022/06/02 03:53:57;;;;;;;6.32;3.33;;;;;;;10.09;73.79;102161.25;5030223;28;96686;-34
2022/06/02 03:56:47;;;;;;;7.80;3.20;;;;;;;10.11;73.54;102174.75;5031164;28;97790;-34
2022/06/02 03:59:41;;;;;;;5.43;2.75;;;;;;;10.09;74.06;102179.31;5013370;28;101195;-34
2022/06/02 04:02:10;;;;;;;8.75;3.00;;;;;;;10.07;74.21;102182.09;5031570;28;96650;-34
2022/06/02 04:05:02;;;;;;;7.85;3.17;;;;;;;9.97;74.39;102176.13;5013244;28;96939;-34
2022/06/02 04:07:57;;;;;;;5.68;2.90;;;;;;;10.03;73.79;102193.97;5013044;28;101220;-34
2022/06/02 04:10:49;;;;;;;8.68;2.83;;;;;;;10.04;74.42;102195.75;5029248;28;100997;-34
2022/06/02 04:13:40;;;;;;;4.88;2.50;;;;;;;9.98;74.26;102186.00;5031065;28;96814;-34
2022/06/02 04:16:24;;;;;;;7.05;3.35;;;;;;;10.04;73.64;102201.16;5031546;28;96646;-35
2022/06/02 04:22:53;;;;;;;6.72;3.40;;;;;;;10.05;74.19;102202.03;5033624;28;96855;-34
2022/06/02 04:25:30;;;;;;;6.28;2.75;;;;;;;10.06;73.82;102198.38;4947137;28;98296;-34
2022/06/02 04:27:55;;;;;;;7.68;3.50;;;;;;;10.07;74.65;102205.56;4936470;28;96730;-34
2022/06/02 04:31:05;;;;;;;6.13;2.75;;;;;;;10.09;74.92;102198.28;4995914;28;97912;-34
2022/06/02 04:33:46;;;;;;;7.68;3.38;;;;;;;10.07;74.23;102198.31;4972015;28;97351;-34
2022/06/02 04:36:31;;;;;;;10.85;4.40;;;;;;;10.11;74.45;102202.69;5029941;28;96893;-34
2022/06/02 04:39:12;;;;;;;10.43;3.70;;;;;;;10.14;74.07;102204.41;5032961;28;96674;-34
2022/06/02 04:42:01;;;;;;;10.48;4.30;;;;;;;10.17;74.00;102210.56;5032796;28;101077;-34
2022/06/02 04:44:35;;;;;;;8.02;4.18;;;;;;;10.19;73.89;102208.69;5033053;28;100841;-34
2022/06/02 04:47:25;;;;;;;9.23;3.50;;;;;;;10.19;74.24;102205.97;5032376;28;96862;-34
2022/06/02 04:50:04;;;;;;;8.07;3.47;;;;;;;10.25;73.75;102213.00;5032888;28;96972;-34
2022/06/02 04:52:54;;;;;;;10.27;4.30;;;;;;;10.26;73.32;102216.59;5032031;28;101765;-34
2022/06/02 04:55:41;;;;;;;6.57;3.90;;;;;;;10.30;73.59;102212.88;5032585;28;101552;-34
2022/06/02 04:58:16;;;;;;;8.70;3.97;;;;;;;10.38;72.98;102221.56;5015955;28;96744;-34
2022/06/02 05:01:06;;;;;;;7.78;3.70;;;;;;;10.45;73.67;102223.09;5033873;28;96632;-34
2022/06/02 05:03:39;;;;;;;9.10;4.38;;;;;;;10.45;72.86;102216.78;5034162;28;98005;-34
2022/06/02 05:06:30;;;;;;;8.73;4.13;;;;;;;10.59;72.71;102231.56;5032456;28;101270;-34
2022/06/02 05:08:55;;;;;;;9.50;3.92;;;;;;;10.66;71.76;102236.75;5032720;28;96821;-34
2022/06/02 05:11:45;;;;;;;8.75;4.35;;;;;;;10.72;72.34;102237.38;5034289;28;96868;-34
2022/06/02 05:14:17;;;;;;;8.10;4.10;;;;;;;10.78;71.89;102230.84;5015534;28;101048;-34
2022/06/02 05:17:15;;;;;;;9.52;4.00;;;;;;;10.90;71.74;102240.31;5032254;28;100504;-34
2022/06/02 05:20:01;;;;;;;10.48;4.45;;;;;;;10.98;71.40;102244.44;5033549;28;96591;-34
2022/06/02 05:22:44;;;;;;;10.57;4.55;;;;;;;11.10;71.38;102245.78;5032308;28;96684;-34
2022/06/02 05:25:28;;;;;;;7.47;3.78;;;;;;;11.21;71.12;102243.50;5031992;28;101457;-34
2022/06/02 05:28:12;;;;;;;8.55;4.00;;;;;;;11.33;71.19;102252.97;5033848;28;97433;-34
2022/06/02 05:30:58;;;;;;;13.30;5.07;;;;;;;11.45;70.42;102251.56;5032466;27;96572;-34
2022/06/02 05:33:56;;;;;;;7.88;3.35;;;;;;;11.53;70.80;102246.66;5033547;28;96579;-34
2022/06/02 05:36:35;;;;;;;7.47;3.00;;;;;;;11.64;70.04;102248.94;5033506;28;97957;-34
2022/06/02 05:39:17;;;;;;;7.28;2.97;;;;;;;11.72;70.17;102248.59;5034017;28;97392;-34
2022/06/02 05:41:58;;;;;;;5.68;3.00;;;;;;;11.84;70.20;102248.06;5033577;28;96638;-34
2022/06/02 05:44:44;;;;;;;6.40;3.38;;;;;;;11.93;70.27;102250.38;5033677;28;96798;-34
2022/06/02 05:47:31;;;;;;;9.20;3.00;;;;;;;12.06;69.40;102258.84;5011303;28;100826;-34
2022/06/02 05:50:21;;;;;;;5.93;2.60;;;;;;;12.17;70.58;102248.41;5011413;28;101001;-34
2022/06/02 05:53:09;;;;;;;4.40;2.63;;;;;;;12.26;69.59;102250.69;5013318;28;96584;-34
2022/06/02 05:55:52;;;;;;;5.45;3.22;;;;;;;12.36;69.45;102251.16;5011871;28;96634;-34
2022/06/02 05:58:35;;;;;;;4.43;2.50;;;;;;;12.53;69.19;102261.22;5013048;28;98059;-34
2022/06/02 06:01:42;;;;;;;6.65;2.95;;;;;;;12.68;69.13;102263.25;5011407;28;100853;-34
2022/06/02 06:04:26;;;;;;;5.55;2.90;;;;;;;12.80;68.94;102259.03;5011623;28;96690;-34
2022/06/02 06:06:58;;;;;;;6.18;3.38;;;;;;;12.81;68.73;102239.03;5013334;28;96647;-34
2022/06/02 06:09:33;;;;;;;8.32;3.25;;;;;;;12.97;69.24;102252.78;5011402;28;99509;-34
2022/06/02 06:12:02;;;;;;;8.15;3.60;;;;;;;13.13;68.78;102261.03;5011236;28;100783;-34
2022/06/02 06:14:45;;;;;;;4.72;2.78;;;;;;;13.23;68.70;102261.47;5012441;28;96604;-34
2022/06/02 06:17:22;;;;;;;5.35;3.10;;;;;;;13.22;68.33;102248.84;5011204;28;97265;-34
2022/06/02 06:20:20;;;;;;;5.78;3.15;;;;;;;13.29;68.94;102256.63;5011324;28;100953;-34
2022/06/02 06:23:20;;;;;;;4.05;2.47;;;;;;;13.19;68.56;102260.75;5011229;28;101327;-34
2022/06/02 06:26:01;;;;;;;6.13;3.25;;;;;;;13.25;69.04;102262.28;5001652;28;96972;-34
2022/06/02 06:28:33;;;;;;;6.18;3.30;;;;;;;13.44;68.07;102256.81;5012560;28;97124;-34
2022/06/02 06:31:20;;;;;;;8.00;3.72;;;;;;;13.66;68.05;102260.22;5010839;28;101524;-34
2022/06/02 06:33:57;;;;;;;8.63;2.97;;;;;;;13.67;67.35;102258.38;5012728;28;97993;-34
2022/06/02 06:36:47;;;;;;;8.45;4.07;;;;;;;13.54;67.66;102271.75;5011215;28;96591;-34
2022/06/02 06:39:21;;;;;;;6.80;3.80;;;;;;;13.45;67.94;102274.94;5012628;28;96765;-34
2022/06/02 06:41:58;;;;;;;5.72;3.35;;;;;;;13.34;68.99;102270.88;5011890;28;97411;-34
2022/06/02 06:44:25;;;;;;;6.45;3.78;;;;;;;13.27;68.16;102274.88;5010988;28;100820;-34
2022/06/02 06:47:09;;;;;;;6.47;3.70;;;;;;;13.21;68.05;102267.00;5029745;28;96793;-34
2022/06/02 06:49:41;;;;;;;6.32;3.40;;;;;;;13.23;68.47;102278.69;5032650;28;96771;-34
2022/06/02 06:52:21;;;;;;;;;;;;;;;13.41;67.94;102276.91;5032875;28;98044;-34
2022/06/02 06:54:54;;;;;;;6.38;3.17;;;;;;;13.68;67.32;102279.19;5032183;28;97707;-34
2022/06/02 06:57:39;;;;;;;9.75;3.65;;;;;;;13.95;66.83;102282.31;5031018;28;96645;-34
2022/06/02 07:00:21;;;;;;;5.78;3.03;;;;;;;14.19;66.27;102282.84;5031968;28;96857;-34
2022/06/02 07:02:58;;;;;;;7.63;2.78;;;;;;;14.26;65.60;102287.00;5032191;28;98369;-34
2022/06/02 07:05:33;;;;;;;7.35;3.58;;;;;;;14.28;65.58;102286.91;5032154;28;97893;-34
2022/06/02 07:08:23;;;;;;;5.43;3.00;;;;;;;14.42;65.29;102287.94;5030267;28;97675;-34
2022/06/02 07:10:58;;;;;;;6.75;3.58;;;;;;;14.55;64.72;102296.34;5030741;28;97364;-34
2022/06/02 07:13:44;;;;;;;5.93;2.92;;;;;;;14.38;64.40;102291.78;5031272;28;99160;-34
2022/06/02 07:16:49;;;;;;;6.15;3.08;;;;;;;14.20;64.88;102300.97;5030548;28;101014;-34
2022/06/02 07:19:36;;;;;;;5.03;2.95;;;;;;;14.04;65.53;102306.38;4969523;28;96971;-34
2022/06/02 07:22:17;;;;;;;7.72;3.25;;;;;;;14.24;65.19;102302.56;4980635;28;96853;-34
2022/06/02 07:24:56;;;;;;;11.77;3.85;;;;;;;14.12;65.48;102304.09;5030449;28;101241;-34
2022/06/02 07:27:49;;;;;;;9.25;3.92;;;;;;;14.08;65.28;102318.84;5030709;28;99627;-34
2022/06/02 07:30:41;;;;;;;15.20;4.05;;;;;;;14.00;65.77;102327.41;5030121;28;96641;-34
2022/06/02 07:33:41;;;;;;;10.55;4.18;;;;;;;13.89;66.01;102318.91;5031737;28;96583;-34
2022/06/02 07:36:25;;;;;;;6.85;3.33;;;;;;;13.92;66.00;102321.50;5031273;28;98202;-34
2022/06/02 07:39:35;;;;;;;7.55;3.80;;;;;;;13.93;65.68;102328.69;5031936;28;97331;-34
2022/06/02 07:42:33;;;;;;;7.70;3.90;;;;;;;13.96;65.47;102333.97;5028209;28;96844;-34
2022/06/02 07:45:31;;;;;;;7.13;3.97;;;;;;;14.25;65.19;102345.19;5030010;28;96902;-33
2022/06/02 07:48:22;;;;;;;10.23;3.72;;;;;;;14.74;64.56;102337.13;5031451;28;99275;-34
2022/06/02 07:51:04;;;;;;;12.90;4.50;;;;;;;15.02;63.36;102333.75;5031359;28;97856;-34
2022/06/02 07:53:43;;;;;;;10.68;4.50;;;;;;;15.27;63.04;102322.28;5030053;27;96721;-34
2022/06/02 07:56:31;;;;;;;10.20;5.15;;;;;;;15.26;62.27;102327.84;5035295;28;96509;-34
2022/06/02 07:59:16;;;;;;;11.52;5.25;;;;;;;15.21;62.57;102333.59;5016646;28;100934;-34
2022/06/02 08:02:00;;;;;;;15.23;4.85;;;;;;;15.26;62.96;102333.31;5033530;28;101098;-34
2022/06/02 08:04:42;;;;;;;11.38;5.22;;;;;;;15.15;63.03;102325.72;5034538;28;97280;-34
2022/06/02 08:07:46;;;;;;;9.07;4.30;;;;;;;15.10;63.21;102336.03;5033549;28;96714;-34
2022/06/02 08:10:27;;;;;;;8.18;3.38;;;;;;;14.95;63.49;102326.00;5009928;28;101014;-34
2022/06/02 08:13:18;;;;;;;9.05;4.18;;;;;;;14.89;63.54;102329.94;5034530;28;98010;-34
2022/06/02 08:15:55;;;;;;;9.93;5.03;;;;;;;14.78;63.58;102333.28;5033494;28;96548;-34
2022/06/02 08:18:30;;;;;;;11.32;4.82;;;;;;;14.69;64.08;102331.06;5034774;28;96690;-34
2022/06/02 08:21:21;;;;;;;8.18;4.80;;;;;;;14.69;63.51;102335.63;5034462;28;99488;-34
2022/06/02 08:24:07;;;;;;;9.02;4.18;;;;;;;14.69;64.12;102336.50;5035260;28;98245;-34
2022/06/02 08:26:57;;;;;;;9.55;4.35;;;;;;;14.92;64.14;102339.78;5034435;28;96913;-34
2022/06/02 08:29:53;;;;;;;9.95;3.92;;;;;;;15.50;62.14;102342.81;5034989;28;96458;-34
2022/06/02 08:32:18;;;;;;;7.45;4.00;;;;;;;15.98;61.56;102344.59;5032168;28;100114;-34
2022/06/02 08:34:57;;;;;;;7.85;4.13;;;;;;;16.31;60.84;102328.88;5034210;28;97776;-34
2022/06/02 08:37:42;;;;;;;10.18;4.82;;;;;;;16.74;59.00;102331.63;5033352;28;96696;-34
2022/06/02 08:40:28;;;;;;;10.70;4.80;;;;;;;17.06;58.61;102336.03;5032894;28;96645;-34
2022/06/02 08:43:21;;;;;;;9.60;4.47;;;;;;;17.20;56.48;102333.25;5033834;28;99590;-34
2022/06/02 08:46:05;;;;;;;9.27;4.57;;;;;;;17.58;57.02;102338.94;5034152;28;97285;-34
2022/06/02 08:48:48;;;;;;;6.00;3.47;;;;;;;17.87;57.45;102332.47;5034719;28;96984;-34
2022/06/02 08:51:23;;;;;;;8.98;4.35;;;;;;;18.09;55.89;102334.63;5034583;28;96776;-34
2022/06/02 08:54:06;;;;;;;10.38;4.15;;;;;;;18.16;54.37;102338.69;5033899;28;97998;-34
2022/06/02 08:56:41;;;;;;;9.10;4.30;;;;;;;18.18;54.26;102326.63;5034124;28;97925;-34
2022/06/02 08:59:21;;;;;;;7.50;3.65;;;;;;;18.41;53.65;102335.09;5033913;28;96573;-34
2022/06/02 09:02:02;;;;;;;8.40;3.17;;;;;;;18.71;54.02;102329.28;5032481;28;97833;-34
2022/06/02 09:04:36;;;;;;;5.93;3.33;;;;;;;18.84;53.65;102332.03;5034143;28;97941;-34
2022/06/02 09:07:23;;;;;;;6.70;3.35;;;;;;;18.98;50.78;102344.78;5033818;28;97339;-34
2022/06/02 09:09:57;;;;;;;11.45;3.67;;;;;;;19.02;51.55;102343.53;5034153;28;96723;-34
2022/06/02 09:12:31;;;;;;;6.78;3.30;;;;;;;19.04;50.82;102344.31;5034044;28;96863;-34
2022/06/02 09:15:09;;;;;;;7.95;3.53;;;;;;;19.07;50.39;102342.22;5032271;28;101156;-34
2022/06/02 09:17:46;;;;;;;5.22;2.92;;;;;;;19.18;49.47;102346.03;5034545;28;97330;-34
2022/06/02 09:20:36;;;;;;;6.72;3.63;;;;;;;19.38;50.01;102347.28;5015838;28;96764;-34
2022/06/02 09:23:18;;;;;;;5.60;3.08;;;;;;;19.46;50.18;102347.59;5033989;28;96818;-34
2022/06/02 09:26:13;;;;;;;7.63;3.70;;;;;;;19.66;49.08;102349.72;5031806;28;101055;-33
2022/06/02 09:28:56;;;;;;;6.68;3.67;;;;;;;19.67;47.94;102340.47;5033627;28;97892;-34
2022/06/02 09:31:24;;;;;;;10.82;3.42;;;;;;;19.97;50.39;102352.88;5033421;28;96637;-34
2022/06/02 09:34:01;;;;;;;6.93;3.13;;;;;;;19.88;49.09;102360.00;5033383;28;96814;-34
2022/06/02 09:36:26;;;;;;;7.38;3.60;;;;;;;19.58;48.50;102356.81;5023543;28;101336;-33
2022/06/02 09:39:06;;;;;;;6.72;3.50;;;;;;;19.67;47.98;102353.34;5013359;28;97344;-34
2022/06/02 09:41:49;;;;;;;10.35;3.90;;;;;;;19.72;47.36;102354.78;5013556;28;96669;-34
2022/06/02 09:44:51;;;;;;;8.00;3.70;;;;;;;19.71;48.32;102339.28;5013896;28;96578;-34
2022/06/02 09:47:29;;;;;;;4.88;2.85;;;;;;;19.98;46.74;102342.78;5013186;28;98041;-34
2022/06/02 09:50:16;;;;;;;10.55;3.90;;;;;;;20.08;48.21;102338.31;5013323;28;97298;-34
2022/06/02 09:53:03;;;;;;;8.75;4.15;;;;;;;20.20;48.57;102337.34;5012815;28;96582;-34
2022/06/02 09:55:28;;;;;;;8.88;3.65;;;;;;;20.37;47.79;102339.63;4995086;28;96675;-34
2022/06/02 09:58:31;;;;;;;9.65;3.75;;;;;;;20.48;46.91;102338.78;5013164;28;98205;-34
2022/06/02 10:01:17;;;;;;;7.55;2.95;;;;;;;20.48;46.12;102330.53;5013086;28;97370;-34
2022/06/02 10:03:52;;;;;;;6.65;2.78;;;;;;;20.61;45.56;102335.06;4995080;28;96612;-34
2022/06/02 10:06:30;;;;;;;5.70;3.33;;;;;;;20.77;46.16;102330.94;5011362;28;96710;-34
2022/06/02 10:09:15;;;;;;;6.00;3.05;;;;;;;20.68;45.21;102319.81;5012714;28;99334;-34
2022/06/02 10:12:54;;;;;;;8.45;3.67;;;;;;;20.85;45.77;102321.19;5011618;28;101001;-34
2022/06/02 10:15:13;;;;;;;8.15;3.30;;;;;;;20.86;45.39;102326.59;5012713;28;96629;-34
2022/06/02 10:18:01;;;;;;;7.43;3.60;;;;;;;21.10;43.98;102320.06;5012310;28;96568;-34
2022/06/02 10:20:41;;;;;;;5.95;3.20;;;;;;;21.24;45.33;102310.63;5010915;28;101095;-34
2022/06/02 10:23:44;;;;;;;6.80;3.40;;;;;;;21.33;43.71;102307.09;5012427;28;97888;-34
2022/06/02 10:26:24;;;;;;;7.22;3.58;;;;;;;21.38;44.67;102307.56;5012787;28;96700;-33
2022/06/02 10:28:59;;;;;;;6.93;3.50;;;;;;;21.19;44.38;102309.16;5010939;28;96871;-35
2022/06/02 10:32:21;;;;;;;8.05;3.75;;;;;;;20.98;45.27;102313.69;5011338;28;98544;-34
2022/06/02 10:34:46;;;;;;;6.53;3.28;;;;;;;20.72;47.17;102310.31;4950497;28;98421;-34
2022/06/02 10:37:33;;;;;;;6.40;3.38;;;;;;;20.84;46.16;102313.94;4950943;28;96614;-34
2022/06/02 10:40:29;;;;;;;5.18;2.85;;;;;;;20.91;45.71;102309.69;4988088;28;96781;-34
2022/06/02 10:43:12;;;;;;;5.65;3.05;;;;;;;20.87;44.98;102308.16;5010669;28;99158;-35
2022/06/02 10:45:59;;;;;;;6.07;2.75;;;;;;;21.10;44.43;102309.03;5008968;28;100986;-35
2022/06/02 10:48:59;;;;;;;3.85;2.38;;;;;;;21.24;44.75;102299.59;4993113;28;97156;-34
2022/06/02 10:51:27;;;;;;;4.28;2.20;;;;;;;21.27;39.60;102302.13;5012162;28;96821;-34
2022/06/02 10:54:06;;;;;;;6.38;2.50;;;;;;;21.39;44.11;102292.81;5012313;28;97515;-35
2022/06/02 10:56:56;;;;;;;6.20;2.53;;;;;;;21.52;44.54;102301.81;5010805;28;101301;-35
2022/06/02 10:59:40;;;;;;;6.10;3.40;;;;;;;21.65;42.63;102306.28;5010857;28;96653;-35
2022/06/02 11:02:08;;;;;;;7.90;3.05;;;;;;;21.61;41.68;102306.53;5012266;28;96776;-35
2022/06/02 11:05:00;;;;;;;5.18;2.55;;;;;;;21.58;42.46;102304.06;5011969;28;97931;-35
2022/06/02 11:08:02;;;;;;;5.53;2.90;;;;;;;21.69;42.68;102300.38;4983188;28;98393;-35
2022/06/02 11:10:42;;;;;;;7.63;2.08;;;;;;;21.56;42.71;102296.91;5012269;28;96499;-35
2022/06/02 11:13:32;;;;;;;4.60;2.60;;;;;;;21.43;40.13;102310.88;4993652;28;96785;-35
2022/06/02 11:16:16;;;;;;;3.35;1.80;;;;;;;21.43;42.20;102299.84;5011408;28;98853;-34
2022/06/02 11:18:53;;;;;;;5.13;2.25;;;;;;;21.20;41.47;102293.47;5012122;28;97917;-34
2022/06/02 11:21:31;;;;;;;5.38;2.33;;;;;;;21.02;43.29;102306.03;5010302;28;97992;-35
2022/06/02 11:24:09;;;;;;;4.15;2.30;;;;;;;21.17;42.94;102296.50;5010657;28;96693;-34
2022/06/02 11:27:13;;;;;;;4.75;1.95;;;;;;;21.35;39.71;102297.69;5010443;28;101294;-35
2022/06/02 11:30:12;;;;;;;4.82;1.98;;;;;;;21.34;39.55;102300.59;4982623;28;97398;-35
2022/06/02 11:33:13;;;;;;;3.60;2.20;;;;;;;21.39;40.76;102295.56;4989087;28;96710;-35
2022/06/02 11:36:17;;;;;;;3.40;1.98;;;;;;;21.33;41.61;102290.56;5015970;28;96696;-35
2022/06/02 11:39:13;;;;;;;5.32;2.47;;;;;;;21.42;39.48;102282.41;5003674;28;98173;-35
2022/06/02 11:41:44;;;;;;;4.53;2.47;;;;;;;21.69;41.38;102283.84;5015103;28;99363;-35
2022/06/02 11:44:17;;;;;;;8.75;2.92;;;;;;;21.82;41.07;102283.66;5014570;28;96750;-35
2022/06/02 11:46:45;;;;;;;5.97;2.95;;;;;;;21.80;39.32;102286.53;5023363;28;97022;-35
2022/06/02 11:49:17;;;;;;;5.68;2.60;;;;;;;21.66;41.10;102275.81;5014897;28;99397;-35
2022/06/02 11:51:54;;;;;;;3.28;2.38;;;;;;;21.53;40.33;102295.31;5030510;28;100782;-35
2022/06/02 11:54:48;;;;;;;6.07;2.58;;;;;;;21.31;41.48;102268.66;5014845;28;96569;-35
2022/06/02 11:57:31;;;;;;;7.07;1.95;;;;;;;21.54;40.37;102274.97;5015011;28;96818;-35
2022/06/02 12:00:24;;;;;;;3.92;2.13;;;;;;;21.60;40.80;102279.97;5015108;28;98165;-35
2022/06/02 12:03:05;;;;;;;3.40;2.10;;;;;;;21.85;39.33;102281.47;5015010;28;99264;-35
2022/06/02 12:06:00;;;;;;;3.13;1.88;;;;;;;21.94;39.23;102273.44;5014881;28;96635;-35
2022/06/02 12:08:46;;;;;;;3.65;2.05;;;;;;;21.94;39.21;102277.06;4977213;28;96812;-35
2022/06/02 12:11:15;;;;;;;5.57;1.90;;;;;;;22.13;38.28;102268.03;5014136;28;97519;-35
2022/06/02 12:13:55;;;;;;;3.80;2.15;;;;;;;22.25;40.02;102266.97;5014427;28;99171;-35
2022/06/02 12:16:45;;;;;;;3.42;2.13;;;;;;;22.22;37.17;102260.88;5015009;28;96654;-35
2022/06/02 12:19:31;;;;;;;4.00;2.08;;;;;;;22.23;38.69;102257.09;5030095;28;96725;-35
2022/06/02 12:22:25;;;;;;;2.65;1.63;;;;;;;22.10;39.23;102246.22;5006102;28;99652;-35
2022/06/02 12:25:22;;;;;;;3.20;1.95;;;;;;;22.12;38.99;102254.34;5046831;27;100923;-35
2022/06/02 12:28:28;;;;;;;4.70;2.00;;;;;;;21.99;39.63;102249.94;5047082;27;96544;-35
2022/06/02 12:31:12;;;;;;;2.88;1.98;;;;;;;21.93;40.70;102253.25;5013435;28;96776;-35
2022/06/02 12:33:56;;;;;;;3.38;1.77;;;;;;;21.89;40.93;102249.00;5014190;28;99219;-35
2022/06/02 12:36:34;;;;;;;5.70;1.83;;;;;;;21.86;40.00;102243.75;5014292;28;97851;-35
2022/06/02 12:39:37;;;;;;;3.55;1.88;;;;;;;21.95;40.15;102244.81;5012639;28;96682;-35
2022/06/02 12:42:36;;;;;;;5.10;2.00;;;;;;;22.14;38.58;102241.31;5014330;28;96885;-34
2022/06/02 12:45:35;;;;;;;2.80;1.80;;;;;;;22.04;37.04;102236.59;5014289;28;98015;-35
2022/06/02 12:48:18;;;;;;;3.25;2.13;;;;;;;22.19;39.08;102239.00;5014238;28;97375;-35